Time;durP1;ratioP1;P1;durP2;ratioP2;P2;SDS_P1;SDS_P2;PMS_P1;PMS_P2;Temp;Humidity;BMP_temperature;BMP_pressure;BME280_temperature;BME280_humidity;BME280_pressure;Samples;Min_cycle;Max_cycle;Signal;HPM_P1;HPM_P2
2022/10/20 00:00:51;;;;;;;7.10;4.10;;;7.40;99.90;;;;;;5010156;28;20111;-80
2022/10/20 00:03:16;;;;;;;6.75;4.72;;;7.30;99.90;;;;;;4997066;28;20482;-80
2022/10/20 00:05:42;;;;;;;5.70;4.90;;;7.80;99.90;;;;;;5010836;28;20418;-80
2022/10/20 00:08:08;;;;;;;6.90;4.18;;;7.30;99.90;;;;;;4994876;28;20046;-80
2022/10/20 00:10:34;;;;;;;9.25;4.95;;;7.30;99.90;;;;;;4976500;28;20041;-80
2022/10/20 00:12:59;;;;;;;8.90;4.30;;;7.30;99.90;;;;;;4977746;28;20060;-81
2022/10/20 00:15:25;;;;;;;9.38;4.40;;;7.30;99.90;;;;;;4996026;28;20084;-80
2022/10/20 00:17:51;;;;;;;7.85;4.40;;;7.30;99.90;;;;;;4976603;28;20041;-81
2022/10/20 00:20:16;;;;;;;7.40;4.57;;;7.40;99.90;;;;;;5016936;28;22164;-83
2022/10/20 00:22:42;;;;;;;7.10;4.03;;;7.30;99.90;;;;;;4992907;28;20141;-81
2022/10/20 00:25:08;;;;;;;7.90;4.35;;;7.20;99.90;;;;;;5010202;28;20045;-80
2022/10/20 00:27:34;;;;;;;7.28;4.60;;;7.20;99.90;;;;;;4978157;28;20099;-83
2022/10/20 00:30:00;;;;;;;7.82;4.55;;;7.20;99.90;;;;;;5016309;28;20052;-80
2022/10/20 00:32:26;;;;;;;9.80;4.47;;;7.20;99.90;;;;;;4977604;28;20366;-80
2022/10/20 00:34:52;;;;;;;7.70;4.18;;;7.20;99.90;;;;;;5009453;28;20483;-81
2022/10/20 00:37:17;;;;;;;7.38;3.90;;;7.20;99.90;;;;;;4994049;28;20072;-80
2022/10/20 00:39:43;;;;;;;6.43;4.18;;;7.10;99.90;;;;;;5017044;28;20518;-80
2022/10/20 00:42:15;;;;;;;7.95;4.47;;;7.10;99.90;;;;;;4993192;28;20045;-80
2022/10/20 00:44:53;;;;;;;6.93;4.13;;;7.10;99.90;;;;;;4998660;28;20049;-80
2022/10/20 00:47:41;;;;;;;5.93;3.95;;;7.20;99.90;;;;;;4996735;28;20050;-82
2022/10/20 00:50:25;;;;;;;8.65;4.03;;;7.10;99.90;;;;;;5016000;28;20060;-82
2022/10/20 00:52:53;;;;;;;5.53;4.22;;;7.10;99.90;;;;;;4991074;28;20087;-83
2022/10/20 00:55:25;;;;;;;11.02;4.30;;;7.10;99.90;;;;;;5009988;28;20132;-82
2022/10/20 00:57:53;;;;;;;7.20;4.03;;;7.10;99.90;;;;;;4992210;28;20049;-83
2022/10/20 01:00:19;;;;;;;6.68;4.18;;;7.00;99.90;;;;;;5016675;28;20540;-82
2022/10/20 01:02:45;;;;;;;5.88;3.67;;;7.20;99.90;;;;;;4993342;28;20063;-80
2022/10/20 01:05:12;;;;;;;7.18;4.07;;;7.00;99.90;;;;;;4993650;28;20609;-80
2022/10/20 01:07:38;;;;;;;7.40;4.80;;;7.00;99.90;;;;;;4980990;28;20048;-81
2022/10/20 01:10:05;;;;;;;7.68;4.15;;;7.00;99.90;;;;;;5007551;28;20042;-81
2022/10/20 01:13:10;;;;;;;7.90;4.35;;;7.00;99.90;;;;;;4977240;28;20119;-81
2022/10/20 01:15:44;;;;;;;6.43;4.35;;;6.90;99.90;;;;;;5010030;28;20179;-81
2022/10/20 01:18:53;;;;;;;8.77;3.95;;;6.90;99.90;;;;;;4990387;28;20046;-81
2022/10/20 01:21:33;;;;;;;10.75;3.85;;;6.90;99.90;;;;;;5006267;28;20065;-81
2022/10/20 01:24:06;;;;;;;7.25;3.95;;;6.90;99.90;;;;;;4993078;28;20448;-81
2022/10/20 01:27:11;;;;;;;5.47;3.97;;;6.90;99.90;;;;;;4988525;28;20332;-80
2022/10/20 01:30:02;;;;;;;7.30;4.00;;;6.90;99.90;;;;;;5009176;28;20438;-80
2022/10/20 01:32:47;;;;;;;5.80;3.80;;;6.90;99.90;;;;;;5016494;28;20050;-80
2022/10/20 01:35:38;;;;;;;6.55;3.92;;;6.80;99.90;;;;;;4988247;28;21293;-81
2022/10/20 01:38:19;;;;;;;7.30;4.30;;;6.80;99.90;;;;;;5006490;28;20483;-80
2022/10/20 01:40:58;;;;;;;6.05;4.13;;;6.80;99.90;;;;;;5008676;28;20046;-80
2022/10/20 01:43:25;;;;;;;5.75;3.75;;;6.80;99.90;;;;;;5014007;28;20045;-80
2022/10/20 01:45:53;;;;;;;7.00;4.28;;;6.80;99.90;;;;;;5019251;28;20095;-80
2022/10/20 01:48:23;;;;;;;5.88;3.58;;;6.80;99.90;;;;;;5006688;28;21044;-80
2022/10/20 01:50:50;;;;;;;8.60;4.13;;;6.80;99.90;;;;;;5011863;28;20041;-80
2022/10/20 01:53:15;;;;;;;7.05;4.18;;;6.80;99.90;;;;;;5006729;28;20110;-80
2022/10/20 01:55:41;;;;;;;7.72;3.65;;;6.70;99.90;;;;;;4993264;28;20152;-80
2022/10/20 01:58:53;;;;;;;8.98;4.18;;;7.10;99.90;;;;;;5006589;28;20227;-79
2022/10/20 02:01:33;;;;;;;9.65;4.03;;;6.70;99.90;;;;;;5006322;28;20234;-80
2022/10/20 02:04:01;;;;;;;5.40;3.97;;;6.70;99.90;;;;;;4988101;28;20045;-80
2022/10/20 02:06:47;;;;;;;5.95;3.97;;;6.70;99.90;;;;;;4996964;28;20071;-82
2022/10/20 02:09:41;;;;;;;9.07;4.38;;;6.70;99.90;;;;;;5007024;28;21321;-82
2022/10/20 02:12:12;;;;;;;6.40;4.03;;;6.70;99.90;;;;;;4988489;28;20056;-82
2022/10/20 02:14:38;;;;;;;8.85;4.60;;;6.70;99.90;;;;;;5008886;28;20160;-82
2022/10/20 02:17:13;;;;;;;6.03;3.83;;;6.60;99.90;;;;;;4992135;28;20107;-79
2022/10/20 02:19:41;;;;;;;7.03;4.10;;;7.50;99.90;;;;;;5007229;28;20184;-80
2022/10/20 02:22:08;;;;;;;7.55;3.85;;;6.60;99.90;;;;;;5013903;28;20037;-80
2022/10/20 02:24:37;;;;;;;6.15;3.88;;;6.80;99.90;;;;;;4996648;28;20068;-81
2022/10/20 02:27:09;;;;;;;8.10;4.18;;;6.60;99.90;;;;;;5006961;28;20132;-80
2022/10/20 02:29:41;;;;;;;5.38;4.07;;;6.60;99.90;;;;;;5008923;28;20042;-80
2022/10/20 02:32:09;;;;;;;7.97;4.55;;;6.50;99.90;;;;;;5017592;28;20419;-80
2022/10/20 02:34:35;;;;;;;6.45;3.90;;;6.70;99.90;;;;;;4997648;28;20094;-80
2022/10/20 02:37:01;;;;;;;5.55;3.63;;;6.50;99.90;;;;;;4996531;28;20399;-80
2022/10/20 02:39:27;;;;;;;8.55;4.03;;;6.50;99.90;;;;;;4977991;28;20042;-80
2022/10/20 02:41:53;;;;;;;8.43;4.90;;;6.50;99.90;;;;;;4995322;28;20500;-80
2022/10/20 02:44:19;;;;;;;6.35;3.92;;;6.50;99.90;;;;;;4999639;28;20054;-80
2022/10/20 02:46:45;;;;;;;5.22;3.95;;;6.50;99.90;;;;;;5011942;28;20120;-80
2022/10/20 02:49:11;;;;;;;7.25;3.97;;;6.60;99.90;;;;;;4977574;28;20041;-80
2022/10/20 02:51:36;;;;;;;5.63;4.18;;;6.50;99.90;;;;;;4995829;28;20057;-80
2022/10/20 02:54:02;;;;;;;5.93;3.97;;;6.50;99.90;;;;;;5008614;28;20045;-80
2022/10/20 02:56:28;;;;;;;7.95;3.88;;;6.50;99.90;;;;;;5008368;28;20104;-80
2022/10/20 02:58:53;;;;;;;8.00;4.57;;;7.20;99.90;;;;;;5009977;28;20118;-80
2022/10/20 03:01:19;;;;;;;7.40;4.05;;;6.50;99.90;;;;;;4988461;28;20061;-80
2022/10/20 03:03:45;;;;;;;5.78;4.15;;;6.50;99.90;;;;;;5000771;28;20176;-80
2022/10/20 03:06:13;;;;;;;5.85;3.90;;;6.50;99.90;;;;;;4996079;28;20184;-80
2022/10/20 03:08:39;;;;;;;7.85;4.88;;;6.50;99.90;;;;;;5011874;28;20483;-79
2022/10/20 03:11:05;;;;;;;5.97;4.15;;;6.90;99.90;;;;;;4991334;28;20205;-79
2022/10/20 03:13:30;;;;;;;7.35;4.25;;;6.50;99.90;;;;;;5011490;28;20471;-79
2022/10/20 03:15:56;;;;;;;7.85;4.38;;;6.90;99.90;;;;;;4995109;28;20071;-79
2022/10/20 03:18:22;;;;;;;6.65;3.95;;;6.50;99.90;;;;;;5001568;28;20238;-80
2022/10/20 03:20:53;;;;;;;7.15;4.10;;;6.50;99.90;;;;;;5009740;28;20056;-80
2022/10/20 03:23:19;;;;;;;5.40;4.15;;;6.50;99.90;;;;;;5025757;28;20053;-81
2022/10/20 03:25:45;;;;;;;8.85;3.72;;;6.60;99.90;;;;;;5011053;28;20132;-80
2022/10/20 03:28:11;;;;;;;8.98;4.38;;;6.70;99.90;;;;;;5000431;28;20044;-80
2022/10/20 03:30:36;;;;;;;6.28;3.88;;;6.50;99.90;;;;;;4989166;28;20046;-80
2022/10/20 03:33:02;;;;;;;6.72;4.00;;;6.50;99.90;;;;;;4978849;28;20049;-80
2022/10/20 03:35:28;;;;;;;5.63;3.72;;;6.50;99.90;;;;;;4993818;28;20085;-79
2022/10/20 03:37:53;;;;;;;6.50;3.88;;;6.50;99.90;;;;;;5010279;28;20057;-80
2022/10/20 03:40:19;;;;;;;6.38;3.63;;;6.50;99.90;;;;;;4988648;28;20053;-80
2022/10/20 03:42:45;;;;;;;10.82;4.18;;;6.50;99.90;;;;;;4991351;28;20049;-80
2022/10/20 03:45:10;;;;;;;7.30;4.55;;;6.60;99.90;;;;;;5008146;28;20483;-80
2022/10/20 03:47:36;;;;;;;6.50;4.55;;;8.00;99.90;;;;;;4991732;28;20045;-80
2022/10/20 03:50:03;;;;;;;8.05;4.40;;;7.70;99.90;;;;;;4993586;28;20118;-80
2022/10/20 03:52:28;;;;;;;6.68;3.60;;;6.40;99.90;;;;;;4994336;28;20050;-81
2022/10/20 03:54:54;;;;;;;5.40;3.78;;;6.40;99.90;;;;;;4994035;28;20131;-80
2022/10/20 03:57:20;;;;;;;5.80;3.85;;;6.40;99.90;;;;;;5014093;28;20563;-80
2022/10/20 03:59:46;;;;;;;6.63;4.20;;;6.40;99.90;;;;;;5012702;28;20060;-80
2022/10/20 04:02:35;;;;;;;7.32;3.70;;;6.30;99.90;;;;;;4991889;28;20041;-81
2022/10/20 04:05:01;;;;;;;5.63;3.92;;;6.30;99.90;;;;;;4992720;28;20061;-80
2022/10/20 04:07:27;;;;;;;7.60;4.15;;;6.30;99.90;;;;;;4991481;28;20041;-80
2022/10/20 04:09:54;;;;;;;5.78;3.70;;;6.30;99.90;;;;;;4994581;28;20053;-80
2022/10/20 04:12:21;;;;;;;7.85;4.07;;;7.30;99.90;;;;;;4995302;28;20045;-80
2022/10/20 04:14:47;;;;;;;7.70;4.50;;;6.30;99.90;;;;;;5016684;28;20053;-80
2022/10/20 04:17:13;;;;;;;7.65;4.05;;;6.30;99.90;;;;;;5007760;28;20042;-81
2022/10/20 04:19:39;;;;;;;5.90;4.25;;;6.30;99.90;;;;;;4982119;28;20635;-81
2022/10/20 04:22:05;;;;;;;6.85;4.28;;;7.00;99.90;;;;;;4978532;28;20053;-81
2022/10/20 04:24:30;;;;;;;7.18;4.10;;;6.30;99.90;;;;;;5010165;28;20117;-80
2022/10/20 04:26:57;;;;;;;8.40;4.38;;;7.00;99.90;;;;;;4994169;28;20502;-79
2022/10/20 04:29:22;;;;;;;6.45;4.65;;;6.30;99.90;;;;;;4991801;28;20073;-80
2022/10/20 04:31:48;;;;;;;7.18;4.60;;;6.30;99.90;;;;;;5014249;28;20985;-80
2022/10/20 04:34:14;;;;;;;8.68;4.55;;;6.30;99.90;;;;;;4981627;28;20041;-80
2022/10/20 04:36:39;;;;;;;8.80;4.88;;;6.30;99.90;;;;;;4978597;28;20434;-80
2022/10/20 04:39:06;;;;;;;6.05;4.50;;;6.90;99.90;;;;;;4999249;28;20522;-80
2022/10/20 04:41:32;;;;;;;6.13;4.45;;;6.30;99.90;;;;;;4989161;28;20049;-80
2022/10/20 04:43:57;;;;;;;10.50;4.85;;;6.70;99.90;;;;;;5010247;28;20057;-79
2022/10/20 04:46:25;;;;;;;8.25;4.82;;;7.30;99.90;;;;;;5021135;28;20048;-80
2022/10/20 04:48:51;;;;;;;7.15;4.45;;;6.30;99.90;;;;;;5008605;28;20133;-80
2022/10/20 04:51:18;;;;;;;8.18;4.57;;;6.30;99.90;;;;;;4989193;28;20541;-80
2022/10/20 04:53:44;;;;;;;9.18;4.93;;;6.30;99.90;;;;;;4996373;28;20045;-80
2022/10/20 04:56:12;;;;;;;8.32;4.90;;;6.30;99.90;;;;;;5007849;28;22699;-79
2022/10/20 04:58:38;;;;;;;5.53;4.43;;;6.30;99.90;;;;;;4996976;28;20056;-80
2022/10/20 05:01:11;;;;;;;8.27;4.90;;;6.30;99.90;;;;;;5007503;28;20050;-80
2022/10/20 05:03:37;;;;;;;7.25;4.80;;;6.50;99.90;;;;;;5010508;28;20124;-79
2022/10/20 05:06:13;;;;;;;9.23;4.75;;;6.30;99.90;;;;;;5009119;28;20077;-80
2022/10/20 05:08:40;;;;;;;7.10;5.00;;;6.30;99.90;;;;;;5022871;28;20049;-79
2022/10/20 05:11:06;;;;;;;7.25;5.32;;;6.30;99.90;;;;;;5010605;28;20102;-80
2022/10/20 05:13:33;;;;;;;8.95;4.80;;;6.40;99.90;;;;;;5007451;28;20795;-80
2022/10/20 05:15:58;;;;;;;9.15;5.38;;;6.40;99.90;;;;;;5009498;28;20046;-80
2022/10/20 05:18:24;;;;;;;8.05;5.25;;;6.30;99.90;;;;;;4993333;28;20054;-80
2022/10/20 05:20:50;;;;;;;8.20;4.70;;;6.40;99.90;;;;;;4977348;28;20118;-79
2022/10/20 05:23:16;;;;;;;11.40;5.07;;;6.40;99.90;;;;;;5002636;28;20049;-80
2022/10/20 05:25:41;;;;;;;7.75;5.50;;;6.40;99.90;;;;;;5014850;28;20041;-80
2022/10/20 05:28:07;;;;;;;10.95;5.82;;;6.50;99.90;;;;;;5007937;28;20045;-80
2022/10/20 05:30:34;;;;;;;8.15;5.30;;;7.20;99.90;;;;;;5025210;28;20041;-83
2022/10/20 05:33:00;;;;;;;7.68;4.95;;;6.30;99.90;;;;;;4994436;28;20136;-80
2022/10/20 05:35:27;;;;;;;8.18;5.25;;;6.30;99.90;;;;;;4978605;28;21187;-82
2022/10/20 05:37:53;;;;;;;7.82;5.20;;;6.30;99.90;;;;;;4995786;28;20105;-80
2022/10/20 05:40:19;;;;;;;9.48;5.00;;;7.50;99.90;;;;;;4981757;28;20099;-80
2022/10/20 05:42:44;;;;;;;9.80;5.53;;;6.30;99.90;;;;;;4999787;28;20046;-80
2022/10/20 05:45:10;;;;;;;9.38;5.55;;;6.30;99.90;;;;;;4995010;28;20049;-80
2022/10/20 05:47:36;;;;;;;8.30;5.78;;;6.30;99.90;;;;;;5011802;28;20056;-81
2022/10/20 05:50:02;;;;;;;7.93;5.22;;;6.30;99.90;;;;;;5008500;28;20052;-81
2022/10/20 05:52:28;;;;;;;7.97;5.43;;;6.30;99.90;;;;;;4993152;28;20050;-81
2022/10/20 05:54:53;;;;;;;7.80;5.55;;;6.30;99.90;;;;;;5017841;28;20853;-80
2022/10/20 05:57:19;;;;;;;9.88;6.70;;;6.30;99.90;;;;;;4990626;28;20524;-80
2022/10/20 05:59:45;;;;;;;10.25;6.00;;;6.30;99.90;;;;;;4996923;28;20059;-81
2022/10/20 06:02:13;;;;;;;9.05;5.63;;;6.50;99.90;;;;;;4983357;28;20049;-80
2022/10/20 06:04:39;;;;;;;8.43;6.30;;;7.80;99.90;;;;;;4991871;28;20049;-81
2022/10/20 06:07:05;;;;;;;10.32;6.32;;;6.30;99.90;;;;;;4978666;28;20053;-81
2022/10/20 06:09:31;;;;;;;11.57;6.22;;;7.50;99.90;;;;;;4994576;28;20053;-81
2022/10/20 06:11:58;;;;;;;10.38;6.25;;;6.30;99.90;;;;;;4996356;28;20099;-85
2022/10/20 06:14:24;;;;;;;9.52;6.65;;;6.30;99.90;;;;;;5012093;28;20096;-81
2022/10/20 06:16:51;;;;;;;8.20;6.45;;;6.40;99.90;;;;;;5011613;28;20045;-81
2022/10/20 06:19:17;;;;;;;10.55;6.70;;;6.30;99.90;;;;;;4993701;28;20206;-81
2022/10/20 06:21:43;;;;;;;10.05;7.05;;;7.20;99.90;;;;;;5014035;28;20121;-81
2022/10/20 06:24:09;;;;;;;10.75;6.85;;;7.60;99.90;;;;;;5002318;28;20080;-81
2022/10/20 06:26:36;;;;;;;9.30;6.65;;;6.40;99.90;;;;;;4985908;28;20379;-82
2022/10/20 06:29:09;;;;;;;10.10;6.82;;;6.60;99.90;;;;;;5009985;28;21798;-81
2022/10/20 06:31:40;;;;;;;11.82;7.15;;;6.40;99.90;;;;;;5010339;28;20287;-83
2022/10/20 06:34:11;;;;;;;10.93;7.10;;;6.40;99.90;;;;;;5011687;28;21174;-82
2022/10/20 06:36:40;;;;;;;10.45;7.15;;;6.40;99.90;;;;;;4996032;28;187187;-82
2022/10/20 06:39:09;;;;;;;10.38;7.22;;;6.40;99.90;;;;;;5002146;28;20110;-83
2022/10/20 06:41:35;;;;;;;9.40;6.25;;;6.50;99.90;;;;;;5009262;28;20073;-81
2022/10/20 06:44:01;;;;;;;12.02;7.22;;;6.70;99.90;;;;;;4970025;28;20161;-81
2022/10/20 06:46:29;;;;;;;8.38;7.25;;;6.50;99.90;;;;;;4982538;28;20479;-81
2022/10/20 06:48:56;;;;;;;11.15;7.18;;;6.50;99.90;;;;;;5010628;28;20056;-81
2022/10/20 06:51:22;;;;;;;10.55;7.90;;;6.50;99.90;;;;;;5000631;28;20053;-81
2022/10/20 06:53:50;;;;;;;11.05;6.65;;;6.60;99.90;;;;;;5009758;28;20510;-82
2022/10/20 06:56:24;;;;;;;13.95;7.85;;;7.10;99.90;;;;;;5017725;28;20048;-83
2022/10/20 06:58:52;;;;;;;12.63;7.50;;;6.60;99.90;;;;;;5012089;28;20053;-83
2022/10/20 07:01:30;;;;;;;10.07;7.30;;;6.60;99.90;;;;;;5017894;28;20045;-83
2022/10/20 07:04:01;;;;;;;10.68;7.53;;;6.60;99.90;;;;;;5018365;28;20384;-83
2022/10/20 07:06:41;;;;;;;10.18;7.68;;;6.70;99.90;;;;;;5018761;28;20889;-84
2022/10/20 07:09:12;;;;;;;12.07;8.40;;;6.70;99.90;;;;;;5001684;28;20041;-81
2022/10/20 07:11:38;;;;;;;11.00;8.35;;;7.50;99.90;;;;;;4995490;28;20573;-82
2022/10/20 07:14:04;;;;;;;13.25;8.25;;;7.20;99.90;;;;;;4995449;28;20057;-80
2022/10/20 07:16:32;;;;;;;13.68;8.30;;;6.80;99.90;;;;;;5001534;28;20041;-82
2022/10/20 07:18:59;;;;;;;10.13;7.82;;;6.90;99.90;;;;;;5012013;28;20041;-82
2022/10/20 07:21:27;;;;;;;11.93;8.13;;;8.30;99.90;;;;;;5012414;28;20849;-82
2022/10/20 07:23:56;;;;;;;11.73;8.32;;;6.90;99.90;;;;;;5012060;28;20123;-81
2022/10/20 07:26:28;;;;;;;11.55;8.77;;;6.90;99.90;;;;;;5012995;28;20041;-82
2022/10/20 07:28:57;;;;;;;12.23;8.75;;;7.00;99.90;;;;;;5014350;28;20068;-81
2022/10/20 07:31:24;;;;;;;12.00;8.20;;;7.00;99.90;;;;;;4996693;28;20928;-82
2022/10/20 07:33:50;;;;;;;11.70;8.25;;;7.00;99.90;;;;;;5014282;28;20046;-82
2022/10/20 07:36:22;;;;;;;12.07;8.27;;;7.10;99.90;;;;;;4997971;28;20119;-83
2022/10/20 07:38:50;;;;;;;13.07;8.73;;;7.20;99.90;;;;;;5023834;28;20049;-83
2022/10/20 07:41:16;;;;;;;11.45;8.30;;;7.20;99.90;;;;;;5012131;28;20402;-82
2022/10/20 07:43:42;;;;;;;12.55;8.50;;;7.20;99.90;;;;;;4983449;28;20492;-81
2022/10/20 07:46:10;;;;;;;12.88;8.93;;;7.40;99.90;;;;;;5012658;28;20294;-82
2022/10/20 07:48:36;;;;;;;11.98;8.65;;;7.30;99.90;;;;;;4996892;28;20046;-81
2022/10/20 07:51:20;;;;;;;11.15;8.45;;;7.30;99.90;;;;;;5015936;28;20669;-84
2022/10/20 07:53:47;;;;;;;13.45;9.13;;;7.40;99.90;;;;;;5022013;28;20042;-83
2022/10/20 07:56:14;;;;;;;13.13;8.73;;;7.40;99.90;;;;;;5003362;28;20045;-87
2022/10/20 07:58:42;;;;;;;11.90;9.43;;;8.90;99.90;;;;;;5016896;28;20755;-82
2022/10/20 08:01:09;;;;;;;11.30;9.18;;;7.50;99.90;;;;;;4995044;28;20046;-83
2022/10/20 08:03:35;;;;;;;10.93;9.43;;;7.60;99.90;;;;;;5012824;28;20069;-83
2022/10/20 08:06:01;;;;;;;13.82;9.38;;;7.60;99.90;;;;;;5016315;28;20095;-83
2022/10/20 08:08:28;;;;;;;12.88;9.40;;;7.70;99.90;;;;;;4980550;28;20041;-82
2022/10/20 08:10:53;;;;;;;12.18;9.77;;;7.70;99.90;;;;;;4979617;28;20038;-83
2022/10/20 08:13:19;;;;;;;13.15;9.20;;;7.80;99.90;;;;;;4994855;28;20104;-83
2022/10/20 08:15:45;;;;;;;14.00;9.85;;;7.80;99.90;;;;;;4999983;28;20045;-83
2022/10/20 08:18:11;;;;;;;12.07;9.50;;;7.90;99.90;;;;;;5015119;28;20065;-83
2022/10/20 08:20:36;;;;;;;12.25;10.00;;;7.90;99.90;;;;;;4999816;28;20092;-83
2022/10/20 08:23:10;;;;;;;12.07;10.27;;;8.00;99.90;;;;;;4988804;28;20049;-84
2022/10/20 08:25:35;;;;;;;11.05;9.13;;;8.00;99.90;;;;;;5014418;28;20050;-83
2022/10/20 08:28:01;;;;;;;12.27;9.38;;;8.80;99.90;;;;;;5004629;28;20040;-83
2022/10/20 08:30:27;;;;;;;11.10;9.32;;;8.20;99.90;;;;;;4981538;28;20045;-83
2022/10/20 08:32:53;;;;;;;11.60;9.00;;;8.20;99.90;;;;;;4998819;28;20046;-82
2022/10/20 08:35:20;;;;;;;14.70;9.90;;;8.30;99.90;;;;;;5016597;28;20103;-83
2022/10/20 08:37:46;;;;;;;13.85;9.25;;;8.40;99.90;;;;;;4998356;28;20361;-83
2022/10/20 08:40:21;;;;;;;12.02;8.93;;;8.50;99.90;;;;;;5006514;28;20526;-85
2022/10/20 08:42:47;;;;;;;;;;;8.60;99.90;;;;;;5004836;28;20295;-83
2022/10/20 08:45:17;;;;;;;13.48;8.90;;;10.20;99.90;;;;;;5012851;28;20363;-84
2022/10/20 08:47:50;;;;;;;13.98;9.20;;;8.80;99.90;;;;;;4998314;28;20042;-85
2022/10/20 08:50:17;;;;;;;13.70;9.45;;;8.90;99.90;;;;;;5019427;28;20042;-84
2022/10/20 08:52:49;;;;;;;13.18;9.63;;;8.80;99.90;;;;;;4999891;28;20048;-84
2022/10/20 08:55:31;;;;;;;10.77;8.70;;;10.40;99.90;;;;;;5014995;28;20254;-84
2022/10/20 08:58:06;;;;;;;13.02;9.25;;;8.90;99.90;;;;;;5005260;28;20046;-85
2022/10/20 09:00:37;;;;;;;12.52;9.82;;;8.90;99.90;;;;;;5015101;28;20052;-84
2022/10/20 09:03:27;;;;;;;11.52;9.68;;;8.00;99.90;;;;;;5019507;28;20045;-82
2022/10/20 09:06:00;;;;;;;12.70;9.20;;;9.30;99.90;;;;;;5004539;28;20057;-84
2022/10/20 09:08:38;;;;;;;12.95;9.48;;;9.20;99.90;;;;;;4994143;28;20896;-83
2022/10/20 09:11:09;;;;;;;12.77;9.30;;;9.20;99.90;;;;;;4998053;28;20484;-83
2022/10/20 09:13:40;;;;;;;10.57;8.65;;;9.20;99.90;;;;;;5014724;28;20509;-84
2022/10/20 09:16:28;;;;;;;10.45;9.35;;;9.40;99.90;;;;;;5018613;28;20052;-83
2022/10/20 09:19:00;;;;;;;13.27;10.07;;;9.60;99.90;;;;;;5003253;28;20054;-83
2022/10/20 09:21:30;;;;;;;13.30;9.13;;;9.70;99.90;;;;;;4998695;28;20112;-84
2022/10/20 09:24:06;;;;;;;11.13;9.43;;;9.60;99.90;;;;;;5017479;28;20087;-88
2022/10/20 09:26:48;;;;;;;12.57;9.50;;;9.80;99.90;;;;;;4997495;28;20099;-86
2022/10/20 09:29:42;;;;;;;9.88;8.65;;;10.60;99.90;;;;;;5005677;28;20038;-84
2022/10/20 09:32:41;;;;;;;11.15;8.95;;;10.00;99.90;;;;;;5016112;28;20125;-85
2022/10/20 09:35:31;;;;;;;14.48;9.65;;;9.00;99.90;;;;;;5016853;28;20045;-84
2022/10/20 09:38:10;;;;;;;11.15;8.98;;;10.10;99.90;;;;;;5013111;28;20117;-85
2022/10/20 09:40:56;;;;;;;11.07;9.02;;;10.50;99.90;;;;;;5001314;28;20067;-84
2022/10/20 09:43:24;;;;;;;11.43;8.30;;;9.60;99.90;;;;;;4999066;28;20045;-84
2022/10/20 09:46:06;;;;;;;10.50;9.20;;;10.50;99.90;;;;;;5013878;28;20056;-82
2022/10/20 09:48:46;;;;;;;9.73;8.60;;;10.20;99.90;;;;;;5011408;28;20060;-83
2022/10/20 09:51:15;;;;;;;10.63;8.55;;;10.60;99.90;;;;;;5000664;28;20479;-83
2022/10/20 09:54:06;;;;;;;11.48;8.80;;;10.60;99.90;;;;;;5013637;28;20069;-82
2022/10/20 09:56:38;;;;;;;10.55;8.43;;;10.70;99.90;;;;;;5005714;28;20057;-83
2022/10/20 09:59:39;;;;;;;10.18;8.15;;;10.70;99.90;;;;;;5002079;28;20119;-82
2022/10/20 10:02:14;;;;;;;12.45;8.23;;;10.70;99.90;;;;;;5001615;28;20069;-81
2022/10/20 10:04:42;;;;;;;11.82;8.30;;;10.20;99.90;;;;;;5019225;28;20075;-82
2022/10/20 10:07:26;;;;;;;12.13;9.07;;;10.90;99.90;;;;;;5012878;28;20045;-83
2022/10/20 10:10:00;;;;;;;9.82;8.63;;;11.00;99.90;;;;;;5014881;28;20490;-83
2022/10/20 10:12:29;;;;;;;12.63;8.27;;;11.20;99.90;;;;;;5013223;28;20055;-84
2022/10/20 10:14:57;;;;;;;10.07;7.75;;;11.30;99.90;;;;;;5015549;28;20052;-83
2022/10/20 10:17:35;;;;;;;10.70;8.65;;;11.40;99.90;;;;;;5013091;28;20046;-84
2022/10/20 10:20:25;;;;;;;10.55;8.40;;;11.50;99.90;;;;;;5013108;28;20044;-84
2022/10/20 10:22:51;;;;;;;12.52;8.60;;;11.60;99.90;;;;;;5006992;28;20661;-83
2022/10/20 10:25:28;;;;;;;12.82;8.98;;;11.80;99.90;;;;;;4985340;28;20099;-83
2022/10/20 10:28:07;;;;;;;9.85;8.40;;;11.90;99.90;;;;;;5002242;28;20068;-82
2022/10/20 10:30:36;;;;;;;12.30;8.18;;;12.00;99.90;;;;;;5012955;28;20104;-82
2022/10/20 10:33:26;;;;;;;10.13;7.47;;;12.00;99.90;;;;;;5001388;28;20474;-83
2022/10/20 10:35:52;;;;;;;9.95;7.50;;;12.10;99.90;;;;;;5003761;28;20049;-83
2022/10/20 10:38:36;;;;;;;9.38;7.88;;;12.20;99.90;;;;;;4996487;28;21113;-83
2022/10/20 10:41:17;;;;;;;10.20;8.20;;;11.20;99.90;;;;;;5014898;28;20045;-83
2022/10/20 10:44:46;;;;;;;9.38;8.27;;;12.20;99.90;;;;;;5001205;28;20060;-83
2022/10/20 10:47:37;;;;;;;9.50;7.85;;;12.20;99.90;;;;;;4999143;28;20050;-83
2022/10/20 10:50:42;;;;;;;10.23;8.10;;;12.20;99.90;;;;;;5012217;28;20049;-83
2022/10/20 10:53:39;;;;;;;10.15;7.95;;;11.20;99.90;;;;;;5018799;28;20045;-83
2022/10/20 10:56:29;;;;;;;9.55;7.60;;;12.20;99.90;;;;;;5022220;28;20084;-83
2022/10/20 10:59:14;;;;;;;9.00;8.10;;;11.10;99.90;;;;;;5001545;28;20125;-84
2022/10/20 11:02:04;;;;;;;9.75;8.00;;;12.30;99.90;;;;;;5002876;28;20119;-84
2022/10/20 11:04:54;;;;;;;9.00;7.82;;;12.30;99.90;;;;;;5011987;28;20057;-84
2022/10/20 11:07:51;;;;;;;11.88;9.50;;;12.20;99.90;;;;;;5010042;28;20057;-84
2022/10/20 11:10:39;;;;;;;10.57;8.93;;;12.10;99.90;;;;;;5003272;28;20062;-84
2022/10/20 11:13:22;;;;;;;11.93;9.52;;;12.10;99.90;;;;;;5020421;28;20099;-84
2022/10/20 11:16:19;;;;;;;10.57;9.50;;;12.00;99.90;;;;;;5009767;28;20085;-87
2022/10/20 11:19:23;;;;;;;13.15;9.25;;;12.00;99.90;;;;;;5011237;28;20053;-83
2022/10/20 11:22:05;;;;;;;10.52;9.00;;;12.00;99.90;;;;;;5008652;28;20586;-84
2022/10/20 11:24:39;;;;;;;11.73;8.43;;;12.00;99.90;;;;;;5018419;28;20041;-83
2022/10/20 11:27:09;;;;;;;10.07;8.77;;;12.00;99.90;;;;;;5008663;28;20076;-83
2022/10/20 11:29:52;;;;;;;10.82;9.48;;;12.00;99.90;;;;;;5039518;28;20053;-82
2022/10/20 11:32:25;;;;;;;11.57;8.60;;;12.00;99.90;;;;;;5017251;28;20494;-83
2022/10/20 11:35:03;;;;;;;9.77;8.27;;;12.00;99.90;;;;;;5008045;28;20073;-81
2022/10/20 11:37:34;;;;;;;11.98;8.88;;;12.00;99.90;;;;;;5019190;28;20133;-81
2022/10/20 11:40:10;;;;;;;10.07;9.07;;;11.90;99.90;;;;;;5026340;28;20065;-81
2022/10/20 11:42:42;;;;;;;10.30;9.07;;;10.60;99.90;;;;;;5019755;28;20049;-82
2022/10/20 11:45:23;;;;;;;11.30;8.45;;;12.30;99.90;;;;;;5020719;28;20042;-81
2022/10/20 11:48:13;;;;;;;;;;;;;;;;;;;;;
2022/10/20 11:50:42;;;;;;;10.60;9.48;;;11.90;99.90;;;;;;5017467;28;20961;-81
2022/10/20 11:53:43;;;;;;;13.43;10.40;;;12.00;99.90;;;;;;5024173;28;20503;-81
2022/10/20 11:56:27;;;;;;;13.85;10.15;;;11.90;99.90;;;;;;5008674;28;20259;-82
2022/10/20 11:59:20;;;;;;;16.25;10.43;;;11.00;99.90;;;;;;5013825;28;20057;-84
2022/10/20 12:02:40;;;;;;;14.05;10.50;;;11.60;99.90;;;;;;4984352;28;20189;-83
2022/10/20 12:05:37;;;;;;;16.05;10.68;;;12.00;99.90;;;;;;5004210;28;20145;-83
2022/10/20 12:08:38;;;;;;;13.52;10.65;;;11.90;99.90;;;;;;5004895;28;20037;-83
2022/10/20 12:11:15;;;;;;;14.80;10.65;;;11.90;99.90;;;;;;4975090;28;20160;-84
2022/10/20 12:13:50;;;;;;;14.60;10.90;;;11.90;99.90;;;;;;4993118;28;20057;-84
2022/10/20 12:16:53;;;;;;;14.80;11.03;;;12.00;99.90;;;;;;4998799;28;20045;-85
2022/10/20 12:19:26;;;;;;;13.48;10.82;;;12.00;99.90;;;;;;4998516;28;20763;-82
2022/10/20 12:21:56;;;;;;;12.15;10.43;;;12.00;99.90;;;;;;5013103;28;20125;-83
2022/10/20 12:24:37;;;;;;;11.88;9.80;;;11.90;99.90;;;;;;4999114;28;20495;-85
2022/10/20 12:27:16;;;;;;;17.55;11.15;;;11.10;99.90;;;;;;4998551;28;20817;-84
2022/10/20 12:29:42;;;;;;;15.88;10.23;;;12.00;99.90;;;;;;5034194;28;20056;-84
2022/10/20 12:32:23;;;;;;;14.38;11.20;;;12.00;99.90;;;;;;4998285;28;20045;-83
2022/10/20 12:34:53;;;;;;;13.95;10.93;;;12.00;99.90;;;;;;5013918;28;20053;-84
2022/10/20 12:37:26;;;;;;;15.38;11.07;;;11.80;99.90;;;;;;5019578;28;20096;-84
2022/10/20 12:39:54;;;;;;;16.73;12.30;;;11.90;99.90;;;;;;5008807;28;20050;-81
2022/10/20 12:42:31;;;;;;;17.50;12.13;;;12.00;99.90;;;;;;4997106;28;20053;-82
2022/10/20 12:45:24;;;;;;;14.52;12.07;;;11.80;99.90;;;;;;4999972;28;20053;-82
2022/10/20 12:47:57;;;;;;;16.50;10.98;;;11.80;99.90;;;;;;4997888;28;20067;-81
2022/10/20 12:50:44;;;;;;;17.23;11.70;;;11.80;99.90;;;;;;4993516;28;20045;-81
2022/10/20 12:53:18;;;;;;;14.15;11.50;;;12.30;99.90;;;;;;5015681;28;20046;-83
2022/10/20 12:55:53;;;;;;;15.38;10.88;;;11.70;99.90;;;;;;5017845;28;20050;-82
2022/10/20 12:58:18;;;;;;;14.50;11.63;;;11.90;99.90;;;;;;5017107;28;20212;-82
2022/10/20 13:00:50;;;;;;;14.55;10.90;;;11.70;99.90;;;;;;4999327;28;20439;-82
2022/10/20 13:03:34;;;;;;;14.15;11.68;;;11.60;99.90;;;;;;5003591;28;20108;-81
2022/10/20 13:06:21;;;;;;;13.15;11.15;;;11.70;99.90;;;;;;5019489;28;20095;-84
2022/10/20 13:09:19;;;;;;;12.60;10.85;;;11.70;99.90;;;;;;5016886;28;20045;-85
2022/10/20 13:12:05;;;;;;;17.58;12.45;;;11.70;99.90;;;;;;5014554;28;20152;-87
2022/10/20 13:15:04;;;;;;;16.08;11.05;;;11.60;99.90;;;;;;5001535;28;20128;-83
2022/10/20 13:17:48;;;;;;;14.80;11.38;;;11.60;99.90;;;;;;5014723;28;20065;-86
2022/10/20 13:20:23;;;;;;;15.57;10.98;;;11.50;99.90;;;;;;5038584;28;20042;-82